createdAt,value
2023-02-12T00:01:27.184Z,4.03
2023-02-12T00:03:55.234Z,16.33
2023-02-12T00:06:23.982Z,3.28
2023-02-12T00:08:53.289Z,3.20
2023-02-12T00:11:24.482Z,10.13
2023-02-12T00:13:53.149Z,5.90
2023-02-12T00:16:23.854Z,14.43
2023-02-12T00:18:54.829Z,7.25
2023-02-12T00:21:23.711Z,14.88
2023-02-12T00:23:52.189Z,7.85
2023-02-12T00:26:23.358Z,8.10
2023-02-12T00:28:52.861Z,4.38
2023-02-12T00:31:23.623Z,5.18
2023-02-12T00:33:52.098Z,5.43
2023-02-12T00:36:23.107Z,5.07
2023-02-12T00:38:53.346Z,6.43
2023-02-12T00:41:23.466Z,8.15
2023-02-12T00:43:51.681Z,11.30
2023-02-12T00:46:20.122Z,6.47
2023-02-12T00:48:48.051Z,4.38
2023-02-12T00:51:16.132Z,5.25
2023-02-12T00:53:44.133Z,3.58
2023-02-12T00:56:12.270Z,8.77
2023-02-12T00:58:41.569Z,11.20
2023-02-12T01:01:09.561Z,12.63
2023-02-12T01:03:38.542Z,8.80
2023-02-12T01:06:07.014Z,4.68
2023-02-12T01:08:34.995Z,10.52
2023-02-12T01:11:04.683Z,5.88
2023-02-12T01:13:34.915Z,14.27
2023-02-12T01:16:08.605Z,5.20
2023-02-12T01:18:38.068Z,3.90
2023-02-12T01:21:11.976Z,5.75
2023-02-12T01:23:40.170Z,5.40
2023-02-12T01:26:10.892Z,11.38
2023-02-12T01:28:39.476Z,15.07
2023-02-12T01:31:13.613Z,2.65
2023-02-12T01:33:42.116Z,3.47
2023-02-12T01:36:12.081Z,16.52
2023-02-12T01:38:40.157Z,5.10
2023-02-12T01:41:11.748Z,5.05
2023-02-12T01:43:40.644Z,6.90
2023-02-12T01:46:15.089Z,4.35
2023-02-12T01:48:45.851Z,12.80
2023-02-12T01:51:18.478Z,6.80
2023-02-12T01:53:52.002Z,8.88
2023-02-12T01:56:20.389Z,11.38
2023-02-12T01:58:52.304Z,7.43
2023-02-12T02:01:25.556Z,9.80
2023-02-12T02:03:58.869Z,6.15
2023-02-12T02:06:31.088Z,11.52
2023-02-12T02:09:02.534Z,7.90
2023-02-12T02:11:48.170Z,6.97
2023-02-12T02:14:34.950Z,8.52
2023-02-12T02:17:22.689Z,7.50
2023-02-12T02:20:17.857Z,15.90
2023-02-12T02:22:54.082Z,8.98
2023-02-12T02:25:58.202Z,5.80
2023-02-12T02:28:48.867Z,13.82
2023-02-12T02:31:24.869Z,7.80
2023-02-12T02:33:57.478Z,7.78
2023-02-12T02:36:36.204Z,4.38
2023-02-12T02:39:11.432Z,8.13
2023-02-12T02:41:47.211Z,8.23
2023-02-12T02:44:23.024Z,7.05
2023-02-12T02:46:54.619Z,9.65
2023-02-12T02:49:26.044Z,4.10
2023-02-12T02:51:57.851Z,8.77
2023-02-12T02:54:32.616Z,8.93
2023-02-12T02:57:04.784Z,14.27
2023-02-12T02:59:38.217Z,6.60
2023-02-12T03:02:13.872Z,10.55
2023-02-12T03:04:46.667Z,7.53
2023-02-12T03:07:18.610Z,8.55
2023-02-12T03:09:52.061Z,14.35
2023-02-12T03:12:26.962Z,8.05
2023-02-12T03:15:00.822Z,5.68
2023-02-12T03:17:33.912Z,8.38
2023-02-12T03:20:06.044Z,6.63
2023-02-12T03:22:37.469Z,11.48
2023-02-12T03:25:12.100Z,13.48
2023-02-12T03:27:42.957Z,7.82
2023-02-12T03:30:12.758Z,9.63
2023-02-12T03:32:53.570Z,5.68
2023-02-12T03:35:26.331Z,5.90
2023-02-12T03:38:02.572Z,7.65
2023-02-12T03:40:35.912Z,7.43
2023-02-12T03:43:10.859Z,6.80
2023-02-12T03:45:46.006Z,5.28
2023-02-12T03:48:23.902Z,7.68
2023-02-12T03:50:55.571Z,6.65
2023-02-12T03:53:23.946Z,5.97
2023-02-12T03:55:58.048Z,13.02
2023-02-12T03:58:30.208Z,9.60
2023-02-12T04:00:58.606Z,4.68
2023-02-12T04:03:30.005Z,4.88
2023-02-12T04:05:58.150Z,8.18
2023-02-12T04:08:28.672Z,7.65
2023-02-12T04:11:07.912Z,12.02
2023-02-12T04:13:44.054Z,12.40
2023-02-12T04:16:23.712Z,8.10
2023-02-12T04:18:54.325Z,5.88
2023-02-12T04:21:39.267Z,7.90
2023-02-12T04:24:17.238Z,4.82
2023-02-12T04:26:53.723Z,11.18
2023-02-12T04:29:31.103Z,8.55
2023-02-12T04:32:05.784Z,9.52
2023-02-12T04:34:40.510Z,5.20
2023-02-12T04:37:14.019Z,5.70
2023-02-12T04:39:43.516Z,6.57
2023-02-12T04:42:11.817Z,5.25
2023-02-12T04:44:41.307Z,4.55
2023-02-12T04:47:09.519Z,5.30
2023-02-12T04:49:38.965Z,8.93
2023-02-12T04:52:07.450Z,4.68
2023-02-12T04:54:35.424Z,4.50
2023-02-12T04:57:03.539Z,8.45
2023-02-12T04:59:31.998Z,8.48
2023-02-12T05:02:00.015Z,6.45
2023-02-12T05:04:28.148Z,6.38
2023-02-12T05:06:57.488Z,6.03
2023-02-12T05:09:25.542Z,5.25
2023-02-12T05:11:53.872Z,3.33
2023-02-12T05:14:21.971Z,5.20
2023-02-12T05:16:49.980Z,9.23
2023-02-12T05:19:20.723Z,11.30
2023-02-12T05:21:51.227Z,7.80
2023-02-12T05:24:20.807Z,9.27
2023-02-12T05:26:50.065Z,7.65
2023-02-12T05:29:18.793Z,8.38
2023-02-12T05:31:46.970Z,10.70
2023-02-12T05:34:15.554Z,6.13
2023-02-12T05:36:43.559Z,7.47
2023-02-12T05:39:12.144Z,9.75
2023-02-12T05:41:41.416Z,6.75
2023-02-12T05:44:12.060Z,5.32
2023-02-12T05:46:40.161Z,8.85
2023-02-12T05:49:08.715Z,8.15
2023-02-12T05:51:36.963Z,7.78
2023-02-12T05:54:07.925Z,7.32
2023-02-12T05:56:37.630Z,6.07
2023-02-12T05:59:08.827Z,5.78
2023-02-12T06:01:39.308Z,6.35
2023-02-12T06:04:09.383Z,4.72
2023-02-12T06:06:37.724Z,6.40
2023-02-12T06:09:05.893Z,6.00
2023-02-12T06:11:34.148Z,5.38
2023-02-12T06:14:04.289Z,5.47
2023-02-12T06:16:35.119Z,6.50
2023-02-12T06:19:05.364Z,9.45
2023-02-12T06:21:34.337Z,7.43
2023-02-12T06:24:02.804Z,11.50
2023-02-12T06:26:30.975Z,9.95
2023-02-12T06:28:59.207Z,6.90
2023-02-12T06:31:30.143Z,6.97
2023-02-12T06:34:02.834Z,6.00
2023-02-12T06:36:31.405Z,7.00
2023-02-12T06:39:00.681Z,10.95
2023-02-12T06:41:28.853Z,11.85
2023-02-12T06:43:57.659Z,8.98
2023-02-12T06:46:26.401Z,6.53
2023-02-12T06:48:56.343Z,11.23
2023-02-12T06:51:28.411Z,9.85
2023-02-12T06:53:57.811Z,9.88
2023-02-12T06:56:28.063Z,12.15
2023-02-12T06:58:58.668Z,10.50
2023-02-12T07:01:29.709Z,9.23
2023-02-12T07:04:00.218Z,8.93
2023-02-12T07:06:34.562Z,12.70
2023-02-12T07:09:04.155Z,8.52
2023-02-12T07:11:38.345Z,8.70
2023-02-12T07:14:07.538Z,10.10
2023-02-12T07:16:36.208Z,11.60
2023-02-12T07:19:04.885Z,8.48
2023-02-12T07:21:34.866Z,9.68
2023-02-12T07:24:03.052Z,7.97
2023-02-12T07:26:31.351Z,14.50
2023-02-12T07:28:59.591Z,14.10
2023-02-12T07:31:28.046Z,10.45
2023-02-12T07:33:57.494Z,14.13
2023-02-12T07:36:27.307Z,13.32
2023-02-12T07:38:57.957Z,9.50
2023-02-12T07:41:27.841Z,9.75
2023-02-12T07:43:57.650Z,14.35
2023-02-12T07:46:30.193Z,9.95
2023-02-12T07:49:01.883Z,7.80
2023-02-12T07:51:30.234Z,6.80
2023-02-12T07:54:01.709Z,8.10
2023-02-12T07:56:32.624Z,8.20
2023-02-12T07:59:02.511Z,12.27
2023-02-12T08:01:32.791Z,13.27
2023-02-12T08:04:02.681Z,9.52
2023-02-12T08:06:32.962Z,18.70
2023-02-12T08:09:04.004Z,13.98
2023-02-12T08:11:33.605Z,13.55
2023-02-12T08:14:02.182Z,20.77
2023-02-12T08:16:31.874Z,12.20
2023-02-12T08:19:14.655Z,12.00
2023-02-12T08:21:45.249Z,14.88
2023-02-12T08:24:14.746Z,22.60
2023-02-12T08:26:43.111Z,16.20
2023-02-12T08:29:13.214Z,17.08
2023-02-12T08:31:42.984Z,12.02
2023-02-12T08:34:19.441Z,18.90
2023-02-12T08:36:48.626Z,16.50
2023-02-12T08:39:18.879Z,13.00
2023-02-12T08:41:47.739Z,17.27
2023-02-12T08:44:16.534Z,17.60
2023-02-12T08:46:47.122Z,20.35
2023-02-12T08:49:17.257Z,13.80
2023-02-12T08:51:48.642Z,15.05
2023-02-12T08:54:23.033Z,18.65
2023-02-12T08:56:51.482Z,19.92
2023-02-12T08:59:19.634Z,14.93
2023-02-12T09:01:51.111Z,13.95
2023-02-12T09:04:24.683Z,15.98
2023-02-12T09:06:56.002Z,15.27
2023-02-12T09:09:26.864Z,17.08
2023-02-12T09:11:56.258Z,17.13
2023-02-12T09:14:25.915Z,15.70
2023-02-12T09:16:54.746Z,10.88
2023-02-12T09:19:23.227Z,14.43
2023-02-12T09:21:55.712Z,12.55
2023-02-12T09:24:27.950Z,17.60
2023-02-12T09:27:03.233Z,19.83
2023-02-12T09:29:33.191Z,12.38
2023-02-12T09:32:09.048Z,12.45
2023-02-12T09:34:37.974Z,13.80
2023-02-12T09:37:06.143Z,12.18
2023-02-12T09:39:35.818Z,16.92
2023-02-12T09:42:26.366Z,10.00
2023-02-12T09:45:03.027Z,8.95
2023-02-12T09:47:37.310Z,13.27
2023-02-12T09:50:18.691Z,11.20
2023-02-12T09:52:46.955Z,11.23
2023-02-12T09:55:19.577Z,16.48
2023-02-12T09:57:47.819Z,7.47
2023-02-12T10:00:19.344Z,11.50
2023-02-12T10:02:54.968Z,8.40
2023-02-12T10:05:35.061Z,11.60
2023-02-12T10:08:25.328Z,11.13
2023-02-12T10:11:12.252Z,13.20
2023-02-12T10:13:48.530Z,9.52
2023-02-12T10:16:37.294Z,6.82
2023-02-12T10:19:24.610Z,8.18
2023-02-12T10:22:02.349Z,5.60
2023-02-12T10:24:59.169Z,5.47
2023-02-12T10:27:40.076Z,5.43
2023-02-12T10:30:21.588Z,14.00
2023-02-12T10:32:54.496Z,4.90
2023-02-12T10:35:24.116Z,4.53
2023-02-12T10:37:58.822Z,6.20
2023-02-12T10:40:30.436Z,5.43
2023-02-12T10:43:01.463Z,6.45
2023-02-12T10:45:33.756Z,9.73
2023-02-12T10:48:20.741Z,5.72
2023-02-12T10:51:37.637Z,8.23
2023-02-12T10:54:36.167Z,8.27
2023-02-12T10:57:11.582Z,6.25
2023-02-12T10:59:41.069Z,8.13
2023-02-12T11:02:21.516Z,6.47
2023-02-12T11:04:49.992Z,6.50
2023-02-12T11:07:18.935Z,5.07
2023-02-12T11:09:48.542Z,5.68
2023-02-12T11:12:22.449Z,3.35
2023-02-12T11:14:54.788Z,3.08
2023-02-12T11:17:29.790Z,1.52
2023-02-12T11:20:20.760Z,2.78
2023-02-12T11:22:57.778Z,2.42
2023-02-12T11:25:27.495Z,3.28
2023-02-12T11:28:16.776Z,2.58
2023-02-12T11:30:54.552Z,7.80
2023-02-12T11:33:29.880Z,0.65
2023-02-12T11:35:59.939Z,2.05
2023-02-12T11:38:33.103Z,3.08
2023-02-12T11:41:08.150Z,3.05
2023-02-12T11:43:39.599Z,2.05
2023-02-12T11:46:09.598Z,2.35
2023-02-12T11:48:40.704Z,3.25
2023-02-12T11:51:11.086Z,3.25
2023-02-12T11:53:43.618Z,2.40
2023-02-12T11:56:14.542Z,2.75
2023-02-12T11:58:44.844Z,3.78
2023-02-12T12:01:20.037Z,3.83
2023-02-12T12:03:58.645Z,3.50
2023-02-12T12:06:35.624Z,2.17
2023-02-12T12:09:08.253Z,5.88
2023-02-12T12:11:45.887Z,5.40
2023-02-12T12:14:19.402Z,2.25
2023-02-12T12:17:13.999Z,1.98
2023-02-12T12:19:55.053Z,3.15
2023-02-12T12:22:41.679Z,4.90
2023-02-12T12:25:17.912Z,5.95
2023-02-12T12:28:05.833Z,7.40
2023-02-12T12:30:44.033Z,7.13
2023-02-12T12:33:18.566Z,6.93
2023-02-12T12:35:56.514Z,9.80
2023-02-12T12:38:35.242Z,11.02
2023-02-12T12:41:10.677Z,11.35
2023-02-12T12:43:51.097Z,11.75
2023-02-12T12:46:44.330Z,17.60
2023-02-12T12:49:30.679Z,11.35
2023-02-12T12:52:26.021Z,18.60
2023-02-12T12:55:15.508Z,11.45
2023-02-12T12:57:52.283Z,9.55
2023-02-12T13:00:33.065Z,11.90
2023-02-12T13:03:38.656Z,9.20
2023-02-12T13:06:42.497Z,12.50
2023-02-12T13:09:34.728Z,11.40
2023-02-12T13:12:31.794Z,8.77
2023-02-12T13:15:04.748Z,16.05
2023-02-12T13:17:41.452Z,8.30
2023-02-12T13:20:19.471Z,7.80
2023-02-12T13:22:54.069Z,10.65
2023-02-12T13:25:29.845Z,11.10
2023-02-12T13:28:00.647Z,8.45
2023-02-12T13:30:32.902Z,6.97
2023-02-12T13:33:09.124Z,6.18
2023-02-12T13:35:42.190Z,10.02
2023-02-12T13:38:18.211Z,4.63
2023-02-12T13:40:49.583Z,7.20
2023-02-12T13:43:32.695Z,6.22
2023-02-12T13:46:09.126Z,7.60
2023-02-12T13:48:50.658Z,10.88
2023-02-12T13:51:29.076Z,5.80
2023-02-12T13:54:11.891Z,8.88
2023-02-12T13:56:43.760Z,5.03
2023-02-12T13:59:46.553Z,5.20
2023-02-12T14:02:49.478Z,2.92
2023-02-12T14:05:32.757Z,6.75
2023-02-12T14:08:05.511Z,3.92
2023-02-12T14:10:38.649Z,3.30
2023-02-12T14:13:20.841Z,12.15
2023-02-12T14:15:51.758Z,7.72
2023-02-12T14:18:27.103Z,3.33
2023-02-12T14:21:31.670Z,4.53
2023-02-12T14:24:50.404Z,3.40
2023-02-12T14:27:38.295Z,6.35
2023-02-12T14:30:24.940Z,5.75
2023-02-12T14:33:20.675Z,5.60
2023-02-12T14:35:51.088Z,2.55
2023-02-12T14:39:02.238Z,5.93
2023-02-12T14:41:41.585Z,3.13
2023-02-12T14:44:57.218Z,2.58
2023-02-12T14:47:52.615Z,2.83
2023-02-12T14:50:38.274Z,2.08
2023-02-12T14:53:21.341Z,1.80
2023-02-12T14:55:49.526Z,2.50
2023-02-12T14:58:20.730Z,1.15
2023-02-12T15:00:56.005Z,1.02
2023-02-12T15:03:30.695Z,2.92
2023-02-12T15:06:11.096Z,1.20
2023-02-12T15:08:46.037Z,1.30
2023-02-12T15:11:36.003Z,1.40
2023-02-12T15:14:07.258Z,1.42
2023-02-12T15:16:48.555Z,2.85
2023-02-12T15:19:31.842Z,1.52
2023-02-12T15:22:00.694Z,1.27
2023-02-12T15:24:28.813Z,3.78
2023-02-12T15:26:59.506Z,2.10
2023-02-12T15:29:31.220Z,2.13
2023-02-12T15:32:04.338Z,2.55
2023-02-12T15:34:34.496Z,1.48
2023-02-12T15:37:05.334Z,2.60
2023-02-12T15:39:41.031Z,1.08
2023-02-12T15:42:28.148Z,2.33
2023-02-12T15:45:17.269Z,1.60
2023-02-12T15:47:55.837Z,0.75
2023-02-12T15:50:23.997Z,5.15
2023-02-12T15:52:52.980Z,4.15
2023-02-12T15:55:25.142Z,2.45
2023-02-12T15:57:55.852Z,2.15
2023-02-12T16:00:31.517Z,1.67
2023-02-12T16:03:00.847Z,2.53
2023-02-12T16:05:29.297Z,3.10
2023-02-12T16:07:57.362Z,2.40
2023-02-12T16:10:27.124Z,1.67
2023-02-12T16:12:55.714Z,1.25
2023-02-12T16:15:26.794Z,0.82
2023-02-12T16:17:56.402Z,1.45
2023-02-12T16:20:27.193Z,2.80
2023-02-12T16:22:56.658Z,1.05
2023-02-12T16:25:27.747Z,1.85
2023-02-12T16:28:00.155Z,1.50
2023-02-12T16:30:31.098Z,2.45
2023-02-12T16:33:00.136Z,0.93
2023-02-12T16:35:32.502Z,1.48
2023-02-12T16:38:03.527Z,0.75
2023-02-12T16:40:37.284Z,0.90
2023-02-12T16:43:21.919Z,1.85
2023-02-12T16:45:50.615Z,1.75
2023-02-12T16:48:23.429Z,1.75
2023-02-12T16:50:57.994Z,2.00
2023-02-12T16:53:43.643Z,2.42
2023-02-12T16:56:18.732Z,1.98
2023-02-12T16:58:48.507Z,5.20
2023-02-12T17:01:19.624Z,2.88
2023-02-12T17:03:50.489Z,3.13
2023-02-12T17:06:25.644Z,2.08
2023-02-12T17:08:53.883Z,7.20
2023-02-12T17:11:23.172Z,3.25
2023-02-12T17:13:53.353Z,5.88
2023-02-12T17:16:30.776Z,4.30
2023-02-12T17:18:59.656Z,32.13
2023-02-12T17:21:31.967Z,3.15
2023-02-12T17:23:59.916Z,6.28
2023-02-12T17:26:28.772Z,6.60
2023-02-12T17:29:05.037Z,3.35
2023-02-12T17:31:33.276Z,3.47
2023-02-12T17:34:01.487Z,9.20
2023-02-12T17:36:30.663Z,7.30
2023-02-12T17:38:58.433Z,4.25
2023-02-12T17:41:26.587Z,12.30
2023-02-12T17:43:54.412Z,2.45
2023-02-12T17:46:24.410Z,3.60
2023-02-12T17:48:52.416Z,2.92
2023-02-12T17:51:20.856Z,0.95
2023-02-12T17:53:50.352Z,3.47
2023-02-12T17:56:20.505Z,1.85
2023-02-12T17:58:49.812Z,2.55
2023-02-12T18:01:21.407Z,4.10
2023-02-12T18:03:51.470Z,1.13
2023-02-12T18:06:25.521Z,2.13
2023-02-12T18:08:55.286Z,2.55
2023-02-12T18:11:23.234Z,1.95
2023-02-12T18:13:53.874Z,1.30
2023-02-12T18:16:21.732Z,2.45
2023-02-12T18:18:49.949Z,2.75
2023-02-12T18:21:18.519Z,1.48
2023-02-12T18:23:46.566Z,1.83
2023-02-12T18:26:20.055Z,2.72
2023-02-12T18:28:48.190Z,3.88
2023-02-12T18:31:17.202Z,7.68
2023-02-12T18:33:47.196Z,2.88
2023-02-12T18:36:29.440Z,2.83
2023-02-12T18:39:00.757Z,6.15
2023-02-12T18:41:43.207Z,1.67
2023-02-12T18:44:11.708Z,3.50
2023-02-12T18:46:40.017Z,2.83
2023-02-12T18:49:14.666Z,2.83
2023-02-12T18:51:52.857Z,6.18
2023-02-12T18:57:29.585Z,5.38
2023-02-12T19:00:01.699Z,7.65
2023-02-12T19:02:45.300Z,5.32
2023-02-12T19:05:26.371Z,3.17
2023-02-12T19:08:19.635Z,3.88
2023-02-12T19:14:05.637Z,2.50
2023-02-12T19:16:34.366Z,2.47
2023-02-12T19:19:10.313Z,5.13
2023-02-12T19:21:42.596Z,3.65
2023-02-12T19:24:15.424Z,2.15
2023-02-12T19:26:46.292Z,4.10
2023-02-12T19:29:16.295Z,3.83
2023-02-12T19:31:47.187Z,4.45
2023-02-12T19:34:22.898Z,8.90
2023-02-12T19:36:51.809Z,4.18
2023-02-12T19:39:24.102Z,3.55
2023-02-12T19:42:01.676Z,1.35
2023-02-12T19:44:37.256Z,2.58
2023-02-12T19:47:06.284Z,1.95
2023-02-12T19:49:41.477Z,1.75
2023-02-12T19:52:24.273Z,2.25
2023-02-12T19:55:02.605Z,2.80
2023-02-12T19:57:35.387Z,7.38
2023-02-12T20:00:07.353Z,2.97
2023-02-12T20:02:35.952Z,4.22
2023-02-12T20:05:04.518Z,2.22
2023-02-12T20:07:33.127Z,4.53
2023-02-12T20:10:06.137Z,2.53
2023-02-12T20:12:36.328Z,3.67
2023-02-12T20:15:20.472Z,4.43
2023-02-12T20:18:00.858Z,3.45
2023-02-12T20:20:29.437Z,3.80
2023-02-12T20:23:03.965Z,4.35
2023-02-12T20:25:34.474Z,2.17
2023-02-12T20:28:07.323Z,4.47
2023-02-12T20:30:40.492Z,3.15
2023-02-12T20:33:08.699Z,1.95
2023-02-12T20:35:37.590Z,4.47
2023-02-12T20:38:05.419Z,4.57
2023-02-12T20:40:33.339Z,3.47
2023-02-12T20:43:01.689Z,2.38
2023-02-12T20:45:29.511Z,3.15
2023-02-12T20:47:58.983Z,1.75
2023-02-12T20:50:48.913Z,5.15
2023-02-12T20:53:58.241Z,3.80
2023-02-12T20:56:37.452Z,3.35
2023-02-12T21:02:05.648Z,3.38
2023-02-12T21:04:47.311Z,4.32
2023-02-12T21:07:16.575Z,4.10
2023-02-12T21:09:49.721Z,4.85
2023-02-12T21:12:23.715Z,4.07
2023-02-12T21:14:57.307Z,3.15
2023-02-12T21:17:39.017Z,5.72
2023-02-12T21:20:13.299Z,5.28
2023-02-12T21:22:48.542Z,4.78
2023-02-12T21:25:16.696Z,3.80
2023-02-12T21:27:47.347Z,6.85
2023-02-12T21:34:26.310Z,5.47
2023-02-12T21:37:03.403Z,4.25
2023-02-12T21:42:31.065Z,3.05
2023-02-12T21:45:10.639Z,3.90
2023-02-12T21:47:39.029Z,3.53
2023-02-12T21:50:08.617Z,3.35
2023-02-12T21:52:38.125Z,5.30
2023-02-12T21:55:06.700Z,3.70
2023-02-12T21:57:34.977Z,4.70
2023-02-12T22:00:03.187Z,4.28
2023-02-12T22:02:40.349Z,6.72
2023-02-12T22:05:09.376Z,3.35
2023-02-12T22:07:39.319Z,2.65
2023-02-12T22:10:09.512Z,5.60
2023-02-12T22:12:37.738Z,2.92
2023-02-12T22:15:08.565Z,4.85
2023-02-12T22:17:36.599Z,7.70
2023-02-12T22:20:05.472Z,6.45
2023-02-12T22:22:33.722Z,5.43
2023-02-12T22:25:03.902Z,4.78
2023-02-12T22:27:32.987Z,4.45
2023-02-12T22:30:01.901Z,6.30
2023-02-12T22:32:34.031Z,4.30
2023-02-12T22:35:02.439Z,4.45
2023-02-12T22:37:30.886Z,7.15
2023-02-12T22:39:58.846Z,8.05
2023-02-12T22:42:28.492Z,14.18
2023-02-12T22:44:57.006Z,9.48
2023-02-12T22:47:26.478Z,7.13
2023-02-12T22:49:54.547Z,6.47
2023-02-12T22:52:22.865Z,6.53
2023-02-12T22:54:50.807Z,6.50
2023-02-12T22:57:19.003Z,7.20
2023-02-12T22:59:48.651Z,8.82
2023-02-12T23:02:16.730Z,7.18
2023-02-12T23:04:44.688Z,5.53
2023-02-12T23:07:12.708Z,6.28
2023-02-12T23:09:40.659Z,6.63
2023-02-12T23:12:10.898Z,5.90
2023-02-12T23:14:38.763Z,8.48
2023-02-12T23:17:08.298Z,9.20
2023-02-12T23:19:36.518Z,6.53
2023-02-12T23:22:04.498Z,8.55
2023-02-12T23:24:32.590Z,8.48
2023-02-12T23:27:00.620Z,7.65
2023-02-12T23:29:28.678Z,11.38
2023-02-12T23:31:56.795Z,7.22
2023-02-12T23:34:26.216Z,6.03
2023-02-12T23:36:54.173Z,7.55
2023-02-12T23:39:22.276Z,5.15
2023-02-12T23:41:50.257Z,6.82
2023-02-12T23:44:18.304Z,4.32
2023-02-12T23:46:47.516Z,6.00
2023-02-12T23:49:15.437Z,9.23
2023-02-12T23:51:46.320Z,6.85
2023-02-12T23:54:14.757Z,5.95
2023-02-12T23:56:42.951Z,3.80
2023-02-12T23:59:10.921Z,4.80
